Terminal Aerodrome Forecast
Issued by NWS

Home | Current Version | Previous Version | Text Only | Print | Product List | Glossary On
Versions: 1 2 3 4 5 6 7 8 9 10 11 12 13 14 15
000
FTUS45 KLKN 242320
TAFTPH
TAF
KTPH 242320Z 2500/2524 35018G30KT P6SM FEW080 BKN150
      TEMPO 2500/2504 35025G35KT
     FM250800 34017G27KT P6SM SCT150
     FM251500 35025G35KT P6SM BKN120=

USA.gov is the U.S. government's official web portal to all federal, state and local government web resources and services.